createdAt,value
2023-05-02T00:01:43.703Z,100794.50
2023-05-02T00:04:16.475Z,100792.75
2023-05-02T00:06:49.745Z,100792.05
2023-05-02T00:09:22.516Z,100791.27
2023-05-02T00:11:54.435Z,100788.49
2023-05-02T00:14:25.892Z,100785.77
2023-05-02T00:16:57.823Z,100779.10
2023-05-02T00:19:29.069Z,100772.69
2023-05-02T00:22:02.520Z,100766.97
2023-05-02T00:24:35.737Z,100767.20
2023-05-02T00:27:08.510Z,100765.39
2023-05-02T00:29:40.981Z,100764.30
2023-05-02T00:32:14.254Z,100757.66
2023-05-02T00:34:47.803Z,100755.48
2023-05-02T00:37:20.109Z,100755.29
2023-05-02T00:39:51.840Z,100754.14
2023-05-02T00:42:28.936Z,100750.26
2023-05-02T00:45:01.074Z,100749.90
2023-05-02T00:47:34.577Z,100743.61
2023-05-02T00:50:10.966Z,100745.21
2023-05-02T00:52:42.674Z,100744.36
2023-05-02T00:55:14.407Z,100744.45
2023-05-02T00:57:49.675Z,100739.57
2023-05-02T01:00:21.158Z,100738.14
2023-05-02T01:03:01.662Z,100735.48
2023-05-02T01:05:43.998Z,100734.08
2023-05-02T01:08:28.294Z,100729.44
2023-05-02T01:11:12.613Z,100728.55
2023-05-02T01:13:47.522Z,100730.04
2023-05-02T01:16:21.726Z,100732.91
2023-05-02T01:18:55.191Z,100728.77
2023-05-02T01:21:29.053Z,100727.09
2023-05-02T01:24:07.571Z,100728.77
2023-05-02T01:26:48.470Z,100730.31
2023-05-02T01:29:22.082Z,100733.98
2023-05-02T01:31:58.357Z,100731.43
2023-05-02T01:34:32.305Z,100727.46
2023-05-02T01:37:05.181Z,100731.77
2023-05-02T01:39:40.850Z,100727.39
2023-05-02T01:42:13.282Z,100729.23
2023-05-02T01:44:45.445Z,100727.55
2023-05-02T01:47:18.021Z,100725.48
2023-05-02T01:49:50.360Z,100717.71
2023-05-02T01:52:25.326Z,100713.77
2023-05-02T01:55:02.339Z,100714.19
2023-05-02T01:57:39.118Z,100710.79
2023-05-02T02:00:17.587Z,100713.99
2023-05-02T02:02:52.346Z,100712.55
2023-05-02T02:05:26.025Z,100710.45
2023-05-02T02:08:00.477Z,100711.52
2023-05-02T02:10:38.894Z,100709.45
2023-05-02T02:13:18.795Z,100703.23
2023-05-02T02:15:53.635Z,100702.23
2023-05-02T02:18:28.806Z,100702.84
2023-05-02T02:21:02.623Z,100700.55
2023-05-02T02:23:38.236Z,100700.22
2023-05-02T02:26:13.288Z,100698.42
2023-05-02T02:28:45.769Z,100697.55
2023-05-02T02:31:21.742Z,100695.92
2023-05-02T02:33:54.993Z,100698.59
2023-05-02T02:36:35.482Z,100698.67
2023-05-02T02:39:25.680Z,100698.00
2023-05-02T02:42:09.094Z,100696.93
2023-05-02T02:44:48.600Z,100699.75
2023-05-02T02:47:28.541Z,100697.10
2023-05-02T02:50:12.572Z,100692.08
2023-05-02T02:52:53.546Z,100691.05
2023-05-02T02:55:37.387Z,100691.30
2023-05-02T02:58:21.497Z,100693.29
2023-05-02T03:00:53.436Z,100691.94
2023-05-02T03:03:29.403Z,100693.82
2023-05-02T03:06:04.620Z,100697.85
2023-05-02T03:08:43.336Z,100693.53
2023-05-02T03:11:19.031Z,100699.55
2023-05-02T03:13:54.561Z,100695.27
2023-05-02T03:16:44.646Z,100696.99
2023-05-02T03:19:18.157Z,100699.73
2023-05-02T03:21:49.802Z,100697.32
2023-05-02T03:24:23.510Z,100698.80
2023-05-02T03:26:59.794Z,100697.41
2023-05-02T03:29:35.364Z,100699.20
2023-05-02T03:32:09.912Z,100705.73
2023-05-02T03:34:42.427Z,100707.11
2023-05-02T03:37:13.384Z,100713.08
2023-05-02T03:39:44.711Z,100717.27
2023-05-02T03:42:16.080Z,100712.64
2023-05-02T03:44:52.732Z,100711.05
2023-05-02T03:47:26.330Z,100711.23
2023-05-02T03:49:58.479Z,100713.36
2023-05-02T03:52:30.757Z,100726.08
2023-05-02T03:55:03.481Z,100726.54
2023-05-02T03:57:37.526Z,100725.30
2023-05-02T04:00:16.263Z,100729.70
2023-05-02T04:02:52.841Z,100732.46
2023-05-02T04:05:29.682Z,100738.45
2023-05-02T04:08:03.795Z,100742.88
2023-05-02T04:10:37.480Z,100742.61
2023-05-02T04:13:13.751Z,100737.50
2023-05-02T04:15:49.287Z,100729.23
2023-05-02T04:18:26.457Z,100727.69
2023-05-02T04:20:57.935Z,100728.95
2023-05-02T04:23:30.198Z,100729.61
2023-05-02T04:26:06.082Z,100731.61
2023-05-02T04:28:53.332Z,100735.15
2023-05-02T04:31:25.462Z,100735.30
2023-05-02T04:33:57.840Z,100742.06
2023-05-02T04:36:33.103Z,100745.80
2023-05-02T04:39:07.657Z,100742.04
2023-05-02T04:41:43.092Z,100742.23
2023-05-02T04:44:14.702Z,100745.89
2023-05-02T04:46:49.425Z,100746.86
2023-05-02T04:49:22.820Z,100751.16
2023-05-02T04:51:57.740Z,100751.73
2023-05-02T04:54:30.580Z,100750.92
2023-05-02T04:57:03.152Z,100744.95
2023-05-02T04:59:40.588Z,100745.60
2023-05-02T05:02:13.254Z,100747.98
2023-05-02T05:04:45.454Z,100752.43
2023-05-02T05:07:18.821Z,100751.55
2023-05-02T05:09:54.023Z,100754.02
2023-05-02T05:12:29.355Z,100753.61
2023-05-02T05:15:00.198Z,100755.81
2023-05-02T05:17:31.679Z,100759.67
2023-05-02T05:20:08.953Z,100759.61
2023-05-02T05:22:43.904Z,100756.21
2023-05-02T05:25:16.472Z,100757.32
2023-05-02T05:27:56.795Z,100761.67
2023-05-02T05:30:30.324Z,100768.47
2023-05-02T05:33:03.793Z,100769.90
2023-05-02T05:35:39.634Z,100772.82
2023-05-02T05:38:10.795Z,100780.63
2023-05-02T05:40:45.903Z,100782.77
2023-05-02T05:43:17.011Z,100785.08
2023-05-02T05:45:50.811Z,100788.08
2023-05-02T05:48:23.332Z,100792.98
2023-05-02T05:50:56.486Z,100791.61
2023-05-02T05:53:31.630Z,100792.64
2023-05-02T05:56:11.433Z,100792.91
2023-05-02T05:58:46.860Z,100796.99
2023-05-02T06:01:19.007Z,100798.94
2023-05-02T06:03:51.927Z,100809.29
2023-05-02T06:06:22.075Z,100814.64
2023-05-02T06:08:53.571Z,100811.70
2023-05-02T06:11:26.677Z,100819.38
2023-05-02T06:14:00.230Z,100814.89
2023-05-02T06:16:34.067Z,100825.58
2023-05-02T06:19:05.516Z,100818.64
2023-05-02T06:21:38.060Z,100820.00
2023-05-02T06:24:10.191Z,100818.59
2023-05-02T06:26:43.648Z,100818.35
2023-05-02T06:29:15.309Z,100837.20
2023-05-02T06:31:44.942Z,100834.67
2023-05-02T06:34:16.263Z,100845.98
2023-05-02T06:36:48.433Z,100845.77
2023-05-02T06:39:18.675Z,100848.39
2023-05-02T06:41:50.895Z,100845.61
2023-05-02T06:44:25.908Z,100851.20
2023-05-02T06:46:59.261Z,100849.42
2023-05-02T06:49:31.029Z,100847.27
2023-05-02T06:52:02.399Z,100847.58
2023-05-02T06:54:35.359Z,100852.98
2023-05-02T06:57:08.606Z,100853.80
2023-05-02T06:59:41.169Z,100866.52
2023-05-02T07:02:12.307Z,100865.80
2023-05-02T07:04:44.953Z,100876.65
2023-05-02T07:07:19.096Z,100877.62
2023-05-02T07:09:52.580Z,100880.55
2023-05-02T07:12:24.104Z,100895.36
2023-05-02T07:14:56.473Z,100894.79
2023-05-02T07:17:29.288Z,100901.31
2023-05-02T07:20:04.158Z,100908.51
2023-05-02T07:22:38.588Z,100913.09
2023-05-02T07:25:13.342Z,100918.15
2023-05-02T07:27:44.217Z,100917.07
2023-05-02T07:30:21.392Z,100915.87
2023-05-02T07:32:54.304Z,100919.94
2023-05-02T07:35:26.669Z,100924.89
2023-05-02T07:37:58.585Z,100924.03
2023-05-02T07:40:32.408Z,100929.71
2023-05-02T07:43:06.240Z,100930.86
2023-05-02T07:45:39.778Z,100927.23
2023-05-02T07:48:12.304Z,100933.91
2023-05-02T07:50:47.277Z,100937.21
2023-05-02T07:53:19.700Z,100940.58
2023-05-02T07:55:51.018Z,100942.54
2023-05-02T07:58:25.263Z,100942.27
2023-05-02T08:00:58.682Z,100946.54
2023-05-02T08:03:31.203Z,100948.31
2023-05-02T08:06:05.589Z,100946.95
2023-05-02T08:08:38.424Z,100947.55
2023-05-02T08:11:09.377Z,100951.15
2023-05-02T08:13:40.332Z,100952.59
2023-05-02T08:16:15.841Z,100957.95
2023-05-02T08:18:49.705Z,100958.77
2023-05-02T08:21:23.490Z,100963.47
2023-05-02T08:23:59.980Z,100962.90
2023-05-02T08:26:34.612Z,100960.62
2023-05-02T08:29:11.465Z,100961.41
2023-05-02T08:31:45.095Z,100963.30
2023-05-02T08:34:23.322Z,100971.61
2023-05-02T08:37:08.852Z,100970.79
2023-05-02T08:39:40.972Z,100973.64
2023-05-02T08:42:13.087Z,100974.89
2023-05-02T08:44:46.273Z,100975.11
2023-05-02T08:47:20.713Z,100974.60
2023-05-02T08:49:56.326Z,100972.05
2023-05-02T08:52:31.080Z,100974.13
2023-05-02T08:55:07.089Z,100976.95
2023-05-02T08:57:40.398Z,100979.35
2023-05-02T09:00:14.848Z,100977.80
2023-05-02T09:03:09.571Z,100982.02
2023-05-02T09:05:44.323Z,100985.92
2023-05-02T09:08:24.811Z,100987.11
2023-05-02T09:11:01.822Z,100984.17
2023-05-02T09:13:36.917Z,100980.91
2023-05-02T09:16:13.059Z,100982.31
2023-05-02T09:18:48.584Z,100981.96
2023-05-02T09:21:22.038Z,100982.61
2023-05-02T09:23:59.673Z,100982.94
2023-05-02T09:26:34.013Z,100984.48
2023-05-02T09:29:08.318Z,100988.45
2023-05-02T09:34:22.532Z,100987.88
2023-05-02T09:36:54.968Z,100993.04
2023-05-02T09:39:30.111Z,100996.02
2023-05-02T09:42:03.802Z,100995.29
2023-05-02T09:44:41.981Z,100995.44
2023-05-02T09:47:26.594Z,100993.75
2023-05-02T09:49:59.755Z,100992.62
2023-05-02T09:52:35.923Z,100994.98
2023-05-02T09:55:23.578Z,100996.90
2023-05-02T09:57:56.605Z,100999.31
2023-05-02T10:00:45.862Z,100997.30
2023-05-02T10:03:18.953Z,100993.49
2023-05-02T10:05:55.204Z,100994.41
2023-05-02T10:08:34.654Z,100997.70
2023-05-02T10:11:11.179Z,101005.55
2023-05-02T10:13:48.302Z,101005.06
2023-05-02T10:16:30.338Z,101000.84
2023-05-02T10:19:10.676Z,101000.18
2023-05-02T10:21:45.170Z,101004.84
2023-05-02T10:24:22.181Z,101008.40
2023-05-02T10:26:54.928Z,101008.26
2023-05-02T10:29:29.659Z,101005.84
2023-05-02T10:32:05.123Z,101006.20
2023-05-02T10:34:37.583Z,101005.42
2023-05-02T10:37:10.096Z,101002.97
2023-05-02T10:39:43.074Z,101006.56
2023-05-02T10:42:19.605Z,101013.50
2023-05-02T10:44:52.402Z,101012.54
2023-05-02T10:47:23.115Z,101013.65
2023-05-02T10:49:56.397Z,101017.23
2023-05-02T10:52:34.458Z,101018.95
2023-05-02T10:55:22.605Z,101016.71
2023-05-02T10:58:28.680Z,101020.09
2023-05-02T11:01:40.228Z,101024.88
2023-05-02T11:04:13.400Z,101026.28
2023-05-02T11:07:16.594Z,101025.67
2023-05-02T11:09:50.096Z,101025.73
2023-05-02T11:12:48.778Z,101032.73
2023-05-02T11:15:53.792Z,101038.09
2023-05-02T11:18:27.645Z,101043.88
2023-05-02T11:21:29.547Z,101041.51
2023-05-02T11:24:40.838Z,101039.82
2023-05-02T11:27:44.205Z,101043.56
2023-05-02T11:30:17.537Z,101049.02
2023-05-02T11:33:17.504Z,101053.83
2023-05-02T11:35:50.102Z,101053.95
2023-05-02T11:38:24.883Z,101054.57
2023-05-02T11:41:00.194Z,101051.97
2023-05-02T11:43:31.948Z,101057.73
2023-05-02T11:46:07.842Z,101058.65
2023-05-02T11:48:40.581Z,101060.41
2023-05-02T11:51:15.738Z,101059.20
2023-05-02T11:53:48.575Z,101059.61
2023-05-02T11:56:26.723Z,101061.38
2023-05-02T11:59:04.236Z,101065.40
2023-05-02T12:01:38.111Z,101067.48
2023-05-02T12:04:11.702Z,101067.66
2023-05-02T12:06:57.018Z,101072.73
2023-05-02T12:09:28.224Z,101072.81
2023-05-02T12:12:02.280Z,101069.90
2023-05-02T12:14:36.276Z,101071.56
2023-05-02T12:17:07.422Z,101074.98
2023-05-02T12:19:38.975Z,101084.92
2023-05-02T12:22:13.457Z,101087.31
2023-05-02T12:24:44.968Z,101094.07
2023-05-02T12:27:19.828Z,101093.38
2023-05-02T12:29:53.327Z,101094.06
2023-05-02T12:32:39.349Z,101096.17
2023-05-02T12:35:23.538Z,101098.33
2023-05-02T12:37:55.300Z,101096.75
2023-05-02T12:40:28.582Z,101099.25
2023-05-02T12:43:05.645Z,101107.50
2023-05-02T12:45:38.709Z,101108.61
2023-05-02T12:48:26.687Z,101109.27
2023-05-02T12:50:58.289Z,101109.23
2023-05-02T12:53:47.507Z,101109.08
2023-05-02T12:56:21.388Z,101115.13
2023-05-02T12:58:54.141Z,101117.95
2023-05-02T13:01:26.412Z,101118.00
2023-05-02T13:03:59.602Z,101119.05
2023-05-02T13:06:31.950Z,101124.23
2023-05-02T13:09:06.158Z,101126.59
2023-05-02T13:11:43.300Z,101130.11
2023-05-02T13:14:15.201Z,101130.91
2023-05-02T13:16:49.881Z,101134.77
2023-05-02T13:19:21.645Z,101137.71
2023-05-02T13:21:53.175Z,101139.23
2023-05-02T13:24:29.017Z,101142.09
2023-05-02T13:27:03.685Z,101150.58
2023-05-02T13:29:36.798Z,101149.77
2023-05-02T13:32:12.995Z,101157.20
2023-05-02T13:34:51.244Z,101161.17
2023-05-02T13:37:29.366Z,101163.73
2023-05-02T13:40:06.687Z,101165.81
2023-05-02T13:42:40.706Z,101166.10
2023-05-02T13:45:17.906Z,101166.30
2023-05-02T13:47:52.577Z,101172.69
2023-05-02T13:50:29.669Z,101172.36
2023-05-02T13:53:04.029Z,101184.71
2023-05-02T13:55:37.479Z,101188.98
2023-05-02T13:58:10.461Z,101197.32
2023-05-02T14:00:42.779Z,101202.48
2023-05-02T14:03:15.066Z,101202.91
2023-05-02T14:05:45.977Z,101201.31
2023-05-02T14:08:18.858Z,101204.75
2023-05-02T14:10:54.113Z,101217.27
2023-05-02T14:13:30.696Z,101224.87
2023-05-02T14:16:08.285Z,101227.15
2023-05-02T14:18:41.121Z,101229.39
2023-05-02T14:21:11.585Z,101235.74
2023-05-02T14:23:45.183Z,101237.78
2023-05-02T14:26:19.650Z,101240.77
2023-05-02T14:28:53.408Z,101247.21
2023-05-02T14:31:27.608Z,101245.55
2023-05-02T14:33:59.828Z,101251.37
2023-05-02T14:36:40.869Z,101254.56
2023-05-02T14:39:17.511Z,101255.25
2023-05-02T14:41:48.480Z,101259.87
2023-05-02T14:44:20.288Z,101266.98
2023-05-02T14:46:56.348Z,101275.14
2023-05-02T14:49:31.072Z,101279.69
2023-05-02T14:52:02.628Z,101281.73
2023-05-02T14:54:42.223Z,101285.96
2023-05-02T14:57:17.006Z,101289.73
2023-05-02T14:59:52.090Z,101294.45
2023-05-02T15:02:24.694Z,101301.42
2023-05-02T15:04:58.257Z,101308.80
2023-05-02T15:07:33.414Z,101312.96
2023-05-02T15:10:06.809Z,101322.11
2023-05-02T15:12:39.730Z,101326.53
2023-05-02T15:15:15.084Z,101332.02
2023-05-02T15:17:49.197Z,101342.69
2023-05-02T15:20:23.449Z,101345.67
2023-05-02T15:22:54.947Z,101346.65
2023-05-02T15:25:28.507Z,101350.27
2023-05-02T15:28:02.143Z,101352.95
2023-05-02T15:30:34.704Z,101350.54
2023-05-02T15:33:11.093Z,101358.13
2023-05-02T15:35:51.126Z,101360.71
2023-05-02T15:38:27.506Z,101358.92
2023-05-02T15:41:03.768Z,101363.98
2023-05-02T15:43:38.941Z,101363.80
2023-05-02T15:46:13.196Z,101375.16
2023-05-02T15:48:46.524Z,101375.83
2023-05-02T15:51:27.906Z,101381.15
2023-05-02T15:54:00.239Z,101386.33
2023-05-02T15:56:36.032Z,101389.04
2023-05-02T15:59:08.300Z,101386.38
2023-05-02T16:01:42.758Z,101393.76
2023-05-02T16:04:15.728Z,101395.91
2023-05-02T16:06:48.016Z,101403.27
2023-05-02T16:09:21.717Z,101403.20
2023-05-02T16:11:55.578Z,101401.58
2023-05-02T16:14:28.546Z,101406.19
2023-05-02T16:17:03.088Z,101409.73
2023-05-02T16:19:37.263Z,101408.61
2023-05-02T16:22:09.129Z,101408.94
2023-05-02T16:24:41.393Z,101411.41
2023-05-02T16:27:13.984Z,101411.55
2023-05-02T16:29:46.566Z,101415.12
2023-05-02T16:32:22.679Z,101415.41
2023-05-02T16:34:54.780Z,101417.05
2023-05-02T16:37:26.467Z,101415.54
2023-05-02T16:40:01.657Z,101420.91
2023-05-02T16:42:35.366Z,101431.28
2023-05-02T16:45:12.764Z,101433.27
2023-05-02T16:47:45.471Z,101437.22
2023-05-02T16:50:19.693Z,101439.34
2023-05-02T16:52:52.225Z,101436.05
2023-05-02T16:55:26.172Z,101429.59
2023-05-02T16:57:57.104Z,101431.19
2023-05-02T17:00:28.629Z,101434.89
2023-05-02T17:03:03.739Z,101441.18
2023-05-02T17:05:37.664Z,101446.27
2023-05-02T17:08:11.034Z,101445.64
2023-05-02T17:10:51.670Z,101449.29
2023-05-02T17:13:25.094Z,101451.61
2023-05-02T17:15:57.777Z,101451.63
2023-05-02T17:18:33.935Z,101451.85
2023-05-02T17:21:08.532Z,101453.61
2023-05-02T17:23:41.618Z,101449.37
2023-05-02T17:26:17.369Z,101458.60
2023-05-02T17:28:53.626Z,101459.45
2023-05-02T17:31:27.445Z,101464.80
2023-05-02T17:34:00.378Z,101470.14
2023-05-02T17:36:33.074Z,101466.91
2023-05-02T17:39:05.218Z,101467.55
2023-05-02T17:41:42.054Z,101474.11
2023-05-02T17:44:16.005Z,101477.96
2023-05-02T17:46:47.550Z,101477.59
2023-05-02T17:49:19.857Z,101477.27
2023-05-02T17:51:53.212Z,101480.88
2023-05-02T17:54:28.555Z,101483.62
2023-05-02T17:57:00.338Z,101490.48
2023-05-02T17:59:33.122Z,101495.67
2023-05-02T18:02:04.700Z,101502.00
2023-05-02T18:04:37.541Z,101505.39
2023-05-02T18:07:10.123Z,101511.95
2023-05-02T18:09:43.364Z,101515.27
2023-05-02T18:12:16.401Z,101513.91
2023-05-02T18:14:47.553Z,101521.46
2023-05-02T18:17:20.233Z,101524.06
2023-05-02T18:19:51.860Z,101526.69
2023-05-02T18:22:23.964Z,101532.41
2023-05-02T18:24:55.667Z,101537.91
2023-05-02T18:27:29.078Z,101545.66
2023-05-02T18:30:02.260Z,101552.27
2023-05-02T18:32:36.078Z,101550.48
2023-05-02T18:35:10.899Z,101551.50
2023-05-02T18:37:43.735Z,101560.05
2023-05-02T18:40:15.848Z,101563.34
2023-05-02T18:42:50.247Z,101565.66
2023-05-02T18:45:24.131Z,101570.23
2023-05-02T18:47:56.641Z,101575.13
2023-05-02T18:50:28.587Z,101577.98
2023-05-02T18:53:01.668Z,101579.27
2023-05-02T18:55:35.359Z,101587.50
2023-05-02T18:58:07.118Z,101593.38
2023-05-02T19:00:41.595Z,101603.97
2023-05-02T19:03:13.769Z,101608.52
2023-05-02T19:05:46.054Z,101612.30
2023-05-02T19:08:16.890Z,101613.70
2023-05-02T19:10:50.450Z,101615.75
2023-05-02T19:13:27.048Z,101621.40
2023-05-02T19:16:02.575Z,101625.21
2023-05-02T19:18:39.957Z,101630.52
2023-05-02T19:21:15.471Z,101637.11
2023-05-02T19:23:53.114Z,101637.10
2023-05-02T19:26:28.697Z,101641.55
2023-05-02T19:29:00.856Z,101648.14
2023-05-02T19:31:34.405Z,101647.85
2023-05-02T19:34:09.637Z,101651.39
2023-05-02T19:36:42.104Z,101657.36
2023-05-02T19:39:14.631Z,101662.98
2023-05-02T19:41:47.755Z,101670.80
2023-05-02T19:44:20.906Z,101673.23
2023-05-02T19:46:52.281Z,101678.27
2023-05-02T19:49:26.587Z,101686.91
2023-05-02T19:51:59.089Z,101693.06
2023-05-02T19:54:33.320Z,101701.45
2023-05-02T19:57:04.727Z,101710.61
2023-05-02T19:59:37.063Z,101711.35
2023-05-02T20:02:10.110Z,101714.09
2023-05-02T20:04:45.530Z,101718.60
2023-05-02T20:07:17.905Z,101719.52
2023-05-02T20:09:50.806Z,101726.80
2023-05-02T20:12:22.537Z,101729.27
2023-05-02T20:14:55.065Z,101730.43
2023-05-02T20:17:27.118Z,101734.27
2023-05-02T20:20:02.517Z,101734.54
2023-05-02T20:22:35.853Z,101732.55
2023-05-02T20:25:12.316Z,101734.26
2023-05-02T20:27:43.740Z,101736.33
2023-05-02T20:30:17.546Z,101737.73
2023-05-02T20:32:50.975Z,101742.37
2023-05-02T20:35:22.697Z,101746.43
2023-05-02T20:37:56.605Z,101745.13
2023-05-02T20:40:29.080Z,101748.02
2023-05-02T20:43:02.418Z,101749.55
2023-05-02T20:45:35.621Z,101748.85
2023-05-02T20:48:07.725Z,101748.09
2023-05-02T20:50:38.632Z,101741.88
2023-05-02T20:53:10.040Z,101743.61
2023-05-02T20:55:42.534Z,101745.40
2023-05-02T20:58:17.109Z,101750.70
2023-05-02T21:00:51.813Z,101754.77
2023-05-02T21:03:24.465Z,101757.39
2023-05-02T21:05:59.609Z,101752.82
2023-05-02T21:08:31.350Z,101756.69
2023-05-02T21:11:04.974Z,101757.35
2023-05-02T21:13:36.014Z,101758.36
2023-05-02T21:16:16.050Z,101763.58
2023-05-02T21:18:47.527Z,101767.18
2023-05-02T21:21:17.778Z,101767.67
2023-05-02T21:23:50.062Z,101765.67
2023-05-02T21:26:21.794Z,101765.89
2023-05-02T21:28:54.728Z,101767.28
2023-05-02T21:31:24.717Z,101766.95
2023-05-02T21:33:56.492Z,101769.00
2023-05-02T21:36:29.496Z,101770.64
2023-05-02T21:39:02.956Z,101773.33
2023-05-02T21:41:35.553Z,101773.50
2023-05-02T21:44:06.280Z,101773.94
2023-05-02T21:46:41.570Z,101774.15
2023-05-02T21:49:31.776Z,101777.71
2023-05-02T21:52:03.678Z,101778.02
2023-05-02T21:54:37.011Z,101779.30
2023-05-02T21:57:09.889Z,101782.63
2023-05-02T21:59:43.306Z,101784.05
2023-05-02T22:02:14.763Z,101785.08
2023-05-02T22:04:47.679Z,101785.00
2023-05-02T22:07:20.424Z,101782.64
2023-05-02T22:09:53.255Z,101792.42
2023-05-02T22:12:28.097Z,101796.77
2023-05-02T22:14:59.999Z,101800.01
2023-05-02T22:17:34.958Z,101795.21
2023-05-02T22:20:13.527Z,101796.75
2023-05-02T22:22:47.867Z,101802.03
2023-05-02T22:25:22.298Z,101810.54
2023-05-02T22:27:54.564Z,101811.85
2023-05-02T22:30:27.438Z,101816.14
2023-05-02T22:33:00.066Z,101817.14
2023-05-02T22:35:33.998Z,101819.95
2023-05-02T22:38:06.605Z,101819.61
2023-05-02T22:40:38.338Z,101821.37
2023-05-02T22:43:09.340Z,101823.91
2023-05-02T22:45:41.762Z,101828.74
2023-05-02T22:48:14.705Z,101832.91
2023-05-02T22:50:49.530Z,101833.77
2023-05-02T22:53:23.074Z,101835.16
2023-05-02T22:55:57.664Z,101836.45
2023-05-02T22:58:30.775Z,101840.77
2023-05-02T23:01:04.344Z,101843.09
2023-05-02T23:03:37.690Z,101841.77
2023-05-02T23:06:10.729Z,101848.42
2023-05-02T23:08:44.402Z,101849.84
2023-05-02T23:11:17.326Z,101852.30
2023-05-02T23:13:49.615Z,101850.84
2023-05-02T23:16:21.797Z,101851.26
2023-05-02T23:18:56.141Z,101857.05
2023-05-02T23:21:26.679Z,101857.28
2023-05-02T23:23:59.226Z,101858.55
2023-05-02T23:26:31.930Z,101862.88
2023-05-02T23:29:05.853Z,101865.49
2023-05-02T23:31:39.699Z,101862.59
2023-05-02T23:34:12.462Z,101862.56
2023-05-02T23:36:44.722Z,101862.30
2023-05-02T23:39:17.705Z,101863.67
2023-05-02T23:41:50.426Z,101866.52
2023-05-02T23:44:20.556Z,101867.65
2023-05-02T23:46:54.575Z,101867.82
2023-05-02T23:49:30.191Z,101875.83
2023-05-02T23:52:04.492Z,101880.52
2023-05-02T23:54:39.953Z,101883.08
2023-05-02T23:57:15.782Z,101879.17
2023-05-02T23:59:48.167Z,101881.14
